sensor_id;sensor_type;location;lat;lon;timestamp;temperature;humidity
65989;HTU21D;53592;51.402;6.054;2023-07-29T00:00:44;20.90;81.77
65989;HTU21D;53592;51.402;6.054;2023-07-29T00:03:10;20.90;81.91
65989;HTU21D;53592;51.402;6.054;2023-07-29T00:05:39;20.89;81.88
65989;HTU21D;53592;51.402;6.054;2023-07-29T00:08:05;20.85;82.15
65989;HTU21D;53592;51.402;6.054;2023-07-29T00:10:37;20.85;82.16
65989;HTU21D;53592;51.402;6.054;2023-07-29T00:13:03;20.85;82.05
65989;HTU21D;53592;51.402;6.054;2023-07-29T00:15:29;20.77;82.17
65989;HTU21D;53592;51.402;6.054;2023-07-29T00:17:54;20.75;82.29
65989;HTU21D;53592;51.402;6.054;2023-07-29T00:20:20;20.75;82.49
65989;HTU21D;53592;51.402;6.054;2023-07-29T00:22:45;20.77;82.48
65989;HTU21D;53592;51.402;6.054;2023-07-29T00:25:11;20.80;82.21
65989;HTU21D;53592;51.402;6.054;2023-07-29T00:27:36;20.76;82.37
65989;HTU21D;53592;51.402;6.054;2023-07-29T00:30:02;20.73;82.82
65989;HTU21D;53592;51.402;6.054;2023-07-29T00:32:29;20.58;83.34
65989;HTU21D;53592;51.402;6.054;2023-07-29T00:34:55;20.50;83.91
65989;HTU21D;53592;51.402;6.054;2023-07-29T00:37:21;20.46;84.11
65989;HTU21D;53592;51.402;6.054;2023-07-29T00:39:46;20.47;84.34
65989;HTU21D;53592;51.402;6.054;2023-07-29T00:42:12;20.49;84.35
65989;HTU21D;53592;51.402;6.054;2023-07-29T00:44:37;20.49;84.35
65989;HTU21D;53592;51.402;6.054;2023-07-29T00:47:04;20.46;84.50
65989;HTU21D;53592;51.402;6.054;2023-07-29T00:49:31;20.41;84.87
65989;HTU21D;53592;51.402;6.054;2023-07-29T00:51:57;20.45;84.79
65989;HTU21D;53592;51.402;6.054;2023-07-29T00:54:23;20.51;84.61
65989;HTU21D;53592;51.402;6.054;2023-07-29T00:56:48;20.55;84.54
65989;HTU21D;53592;51.402;6.054;2023-07-29T00:59:15;20.56;84.55
65989;HTU21D;53592;51.402;6.054;2023-07-29T01:01:41;20.59;84.38
65989;HTU21D;53592;51.402;6.054;2023-07-29T01:04:06;20.62;84.26
65989;HTU21D;53592;51.402;6.054;2023-07-29T01:06:51;20.65;84.33
65989;HTU21D;53592;51.402;6.054;2023-07-29T01:09:41;20.69;84.10
65989;HTU21D;53592;51.402;6.054;2023-07-29T01:12:33;20.75;83.92
65989;HTU21D;53592;51.402;6.054;2023-07-29T01:15:38;20.72;83.96
65989;HTU21D;53592;51.402;6.054;2023-07-29T01:18:10;20.74;84.00
65989;HTU21D;53592;51.402;6.054;2023-07-29T01:20:42;20.77;83.83
65989;HTU21D;53592;51.402;6.054;2023-07-29T01:23:08;20.80;83.72
65989;HTU21D;53592;51.402;6.054;2023-07-29T01:25:34;20.83;83.61
65989;HTU21D;53592;51.402;6.054;2023-07-29T01:27:59;20.84;83.61
65989;HTU21D;53592;51.402;6.054;2023-07-29T01:30:31;20.84;83.58
65989;HTU21D;53592;51.402;6.054;2023-07-29T01:33:14;20.81;83.78
65989;HTU21D;53592;51.402;6.054;2023-07-29T01:35:52;20.81;83.81
65989;HTU21D;53592;51.402;6.054;2023-07-29T01:38:28;20.79;83.95
65989;HTU21D;53592;51.402;6.054;2023-07-29T01:41:00;20.80;84.00
65989;HTU21D;53592;51.402;6.054;2023-07-29T01:43:30;20.81;83.90
65989;HTU21D;53592;51.402;6.054;2023-07-29T01:45:56;20.81;83.90
65989;HTU21D;53592;51.402;6.054;2023-07-29T01:48:22;20.81;83.85
65989;HTU21D;53592;51.402;6.054;2023-07-29T01:50:47;20.84;83.75
65989;HTU21D;53592;51.402;6.054;2023-07-29T01:53:13;20.86;83.65
65989;HTU21D;53592;51.402;6.054;2023-07-29T01:55:39;20.87;83.67
65989;HTU21D;53592;51.402;6.054;2023-07-29T01:58:04;20.89;83.57
65989;HTU21D;53592;51.402;6.054;2023-07-29T02:00:30;20.90;83.49
65989;HTU21D;53592;51.402;6.054;2023-07-29T02:02:55;20.89;83.57
65989;HTU21D;53592;51.402;6.054;2023-07-29T02:05:21;20.90;83.42
65989;HTU21D;53592;51.402;6.054;2023-07-29T02:07:46;20.93;83.32
65989;HTU21D;53592;51.402;6.054;2023-07-29T02:10:12;20.92;83.23
65989;HTU21D;53592;51.402;6.054;2023-07-29T02:12:37;20.87;83.45
65989;HTU21D;53592;51.402;6.054;2023-07-29T02:15:03;20.84;83.58
65989;HTU21D;53592;51.402;6.054;2023-07-29T02:17:30;20.83;83.54
65989;HTU21D;53592;51.402;6.054;2023-07-29T02:19:56;20.81;83.59
65989;HTU21D;53592;51.402;6.054;2023-07-29T02:22:21;20.73;83.85
65989;HTU21D;53592;51.402;6.054;2023-07-29T02:24:47;20.72;83.92
65989;HTU21D;53592;51.402;6.054;2023-07-29T02:27:12;20.70;83.86
65989;HTU21D;53592;51.402;6.054;2023-07-29T02:29:37;20.72;83.73
65989;HTU21D;53592;51.402;6.054;2023-07-29T02:32:03;20.72;83.48
65989;HTU21D;53592;51.402;6.054;2023-07-29T02:34:29;20.72;83.32
65989;HTU21D;53592;51.402;6.054;2023-07-29T02:36:55;20.71;83.29
65989;HTU21D;53592;51.402;6.054;2023-07-29T02:39:20;20.72;83.18
65989;HTU21D;53592;51.402;6.054;2023-07-29T02:41:46;20.73;83.07
65989;HTU21D;53592;51.402;6.054;2023-07-29T02:44:12;20.74;83.04
65989;HTU21D;53592;51.402;6.054;2023-07-29T02:46:37;20.74;83.13
65989;HTU21D;53592;51.402;6.054;2023-07-29T02:49:03;20.75;83.03
65989;HTU21D;53592;51.402;6.054;2023-07-29T02:51:30;20.71;82.79
65989;HTU21D;53592;51.402;6.054;2023-07-29T02:53:55;20.66;82.30
65989;HTU21D;53592;51.402;6.054;2023-07-29T02:56:21;20.62;81.81
65989;HTU21D;53592;51.402;6.054;2023-07-29T02:58:46;20.57;81.83
65989;HTU21D;53592;51.402;6.054;2023-07-29T03:01:12;20.54;81.77
65989;HTU21D;53592;51.402;6.054;2023-07-29T03:03:37;20.48;81.57
65989;HTU21D;53592;51.402;6.054;2023-07-29T03:06:07;20.42;81.15
65989;HTU21D;53592;51.402;6.054;2023-07-29T03:08:34;20.34;80.90
65989;HTU21D;53592;51.402;6.054;2023-07-29T03:11:15;20.32;80.73
65989;HTU21D;53592;51.402;6.054;2023-07-29T03:13:41;20.29;80.30
65989;HTU21D;53592;51.402;6.054;2023-07-29T03:16:13;20.27;80.14
65989;HTU21D;53592;51.402;6.054;2023-07-29T03:18:40;20.24;79.98
65989;HTU21D;53592;51.402;6.054;2023-07-29T03:21:06;20.24;79.85
65989;HTU21D;53592;51.402;6.054;2023-07-29T03:23:33;20.24;79.55
65989;HTU21D;53592;51.402;6.054;2023-07-29T03:26:00;20.16;79.49
65989;HTU21D;53592;51.402;6.054;2023-07-29T03:28:32;20.13;79.21
65989;HTU21D;53592;51.402;6.054;2023-07-29T03:30:58;20.07;79.10
65989;HTU21D;53592;51.402;6.054;2023-07-29T03:33:25;20.06;79.27
65989;HTU21D;53592;51.402;6.054;2023-07-29T03:35:52;20.10;79.04
65989;HTU21D;53592;51.402;6.054;2023-07-29T03:38:18;20.11;78.75
65989;HTU21D;53592;51.402;6.054;2023-07-29T03:40:43;20.12;78.57
65989;HTU21D;53592;51.402;6.054;2023-07-29T03:43:09;20.15;78.32
65989;HTU21D;53592;51.402;6.054;2023-07-29T03:45:35;20.15;78.01
65989;HTU21D;53592;51.402;6.054;2023-07-29T03:48:02;20.18;77.76
65989;HTU21D;53592;51.402;6.054;2023-07-29T03:50:28;20.18;77.50
65989;HTU21D;53592;51.402;6.054;2023-07-29T03:52:54;20.18;77.23
65989;HTU21D;53592;51.402;6.054;2023-07-29T03:55:20;20.15;77.08
65989;HTU21D;53592;51.402;6.054;2023-07-29T03:57:46;20.13;76.91
65989;HTU21D;53592;51.402;6.054;2023-07-29T04:00:12;20.04;76.79
65989;HTU21D;53592;51.402;6.054;2023-07-29T04:02:37;19.98;76.60
65989;HTU21D;53592;51.402;6.054;2023-07-29T04:05:03;19.91;76.82
65989;HTU21D;53592;51.402;6.054;2023-07-29T04:07:30;19.88;76.99
65989;HTU21D;53592;51.402;6.054;2023-07-29T04:09:56;19.86;76.89
65989;HTU21D;53592;51.402;6.054;2023-07-29T04:12:22;19.82;76.81
65989;HTU21D;53592;51.402;6.054;2023-07-29T04:14:48;19.77;77.13
65989;HTU21D;53592;51.402;6.054;2023-07-29T04:17:14;19.79;77.04
65989;HTU21D;53592;51.402;6.054;2023-07-29T04:19:39;19.73;77.11
65989;HTU21D;53592;51.402;6.054;2023-07-29T04:22:05;19.67;77.33
65989;HTU21D;53592;51.402;6.054;2023-07-29T04:24:30;19.62;77.33
65989;HTU21D;53592;51.402;6.054;2023-07-29T04:26:56;19.57;77.58
65989;HTU21D;53592;51.402;6.054;2023-07-29T04:29:21;19.50;77.72
65989;HTU21D;53592;51.402;6.054;2023-07-29T04:31:49;19.50;77.94
65989;HTU21D;53592;51.402;6.054;2023-07-29T04:34:15;19.43;77.79
65989;HTU21D;53592;51.402;6.054;2023-07-29T04:36:40;19.29;78.44
65989;HTU21D;53592;51.402;6.054;2023-07-29T04:39:06;19.29;79.04
65989;HTU21D;53592;51.402;6.054;2023-07-29T04:41:31;19.30;79.13
65989;HTU21D;53592;51.402;6.054;2023-07-29T04:43:57;19.33;79.21
65989;HTU21D;53592;51.402;6.054;2023-07-29T04:46:22;19.37;79.27
65989;HTU21D;53592;51.402;6.054;2023-07-29T04:48:48;19.40;79.22
65989;HTU21D;53592;51.402;6.054;2023-07-29T04:51:13;19.42;79.14
65989;HTU21D;53592;51.402;6.054;2023-07-29T04:53:39;19.44;79.08
65989;HTU21D;53592;51.402;6.054;2023-07-29T04:56:05;19.46;79.08
65989;HTU21D;53592;51.402;6.054;2023-07-29T04:58:30;19.47;79.12
65989;HTU21D;53592;51.402;6.054;2023-07-29T05:00:59;19.47;79.17
65989;HTU21D;53592;51.402;6.054;2023-07-29T05:03:25;19.46;79.33
65989;HTU21D;53592;51.402;6.054;2023-07-29T05:05:51;19.45;79.53
65989;HTU21D;53592;51.402;6.054;2023-07-29T05:08:18;19.44;79.45
65989;HTU21D;53592;51.402;6.054;2023-07-29T05:10:44;19.42;79.45
65989;HTU21D;53592;51.402;6.054;2023-07-29T05:13:10;19.42;79.31
65989;HTU21D;53592;51.402;6.054;2023-07-29T05:15:35;19.40;79.41
65989;HTU21D;53592;51.402;6.054;2023-07-29T05:18:01;19.41;79.34
65989;HTU21D;53592;51.402;6.054;2023-07-29T05:20:26;19.43;79.30
65989;HTU21D;53592;51.402;6.054;2023-07-29T05:22:52;19.42;79.21
65989;HTU21D;53592;51.402;6.054;2023-07-29T05:25:17;19.39;78.94
65989;HTU21D;53592;51.402;6.054;2023-07-29T05:27:42;19.38;79.10
65989;HTU21D;53592;51.402;6.054;2023-07-29T05:30:08;19.38;79.02
65989;HTU21D;53592;51.402;6.054;2023-07-29T05:32:34;19.38;79.01
65989;HTU21D;53592;51.402;6.054;2023-07-29T05:34:59;19.39;79.00
65989;HTU21D;53592;51.402;6.054;2023-07-29T05:37:24;19.43;78.73
65989;HTU21D;53592;51.402;6.054;2023-07-29T05:39:50;19.39;78.63
65989;HTU21D;53592;51.402;6.054;2023-07-29T05:42:15;19.41;78.67
65989;HTU21D;53592;51.402;6.054;2023-07-29T05:44:41;19.41;78.60
65989;HTU21D;53592;51.402;6.054;2023-07-29T05:47:06;19.44;78.52
65989;HTU21D;53592;51.402;6.054;2023-07-29T05:49:32;19.47;78.36
65989;HTU21D;53592;51.402;6.054;2023-07-29T05:51:57;19.48;78.07
65989;HTU21D;53592;51.402;6.054;2023-07-29T05:54:23;19.45;77.93
65989;HTU21D;53592;51.402;6.054;2023-07-29T05:56:48;19.46;77.94
65989;HTU21D;53592;51.402;6.054;2023-07-29T05:59:14;19.46;77.73
65989;HTU21D;53592;51.402;6.054;2023-07-29T06:01:39;19.48;77.53
65989;HTU21D;53592;51.402;6.054;2023-07-29T06:04:05;19.46;77.56
65989;HTU21D;53592;51.402;6.054;2023-07-29T06:06:30;19.45;77.57
65989;HTU21D;53592;51.402;6.054;2023-07-29T06:08:56;19.45;77.37
65989;HTU21D;53592;51.402;6.054;2023-07-29T06:11:21;19.45;77.32
65989;HTU21D;53592;51.402;6.054;2023-07-29T06:13:47;19.51;77.18
65989;HTU21D;53592;51.402;6.054;2023-07-29T06:16:13;19.55;76.92
65989;HTU21D;53592;51.402;6.054;2023-07-29T06:18:39;19.59;76.89
65989;HTU21D;53592;51.402;6.054;2023-07-29T06:21:04;19.67;77.09
65989;HTU21D;53592;51.402;6.054;2023-07-29T06:23:33;19.80;77.14
65989;HTU21D;53592;51.402;6.054;2023-07-29T06:25:59;19.95;76.48
65989;HTU21D;53592;51.402;6.054;2023-07-29T06:28:26;20.06;76.02
65989;HTU21D;53592;51.402;6.054;2023-07-29T06:30:52;20.18;75.48
65989;HTU21D;53592;51.402;6.054;2023-07-29T06:33:18;20.27;75.22
65989;HTU21D;53592;51.402;6.054;2023-07-29T06:35:43;20.35;74.53
65989;HTU21D;53592;51.402;6.054;2023-07-29T06:38:09;20.41;74.24
65989;HTU21D;53592;51.402;6.054;2023-07-29T06:40:34;20.42;73.90
65989;HTU21D;53592;51.402;6.054;2023-07-29T06:43:00;20.41;73.47
65989;HTU21D;53592;51.402;6.054;2023-07-29T06:45:27;20.43;73.86
65989;HTU21D;53592;51.402;6.054;2023-07-29T06:47:52;20.56;74.38
65989;HTU21D;53592;51.402;6.054;2023-07-29T06:50:18;20.80;74.14
65989;HTU21D;53592;51.402;6.054;2023-07-29T06:52:44;21.04;72.83
65989;HTU21D;53592;51.402;6.054;2023-07-29T06:55:10;21.30;72.26
65989;HTU21D;53592;51.402;6.054;2023-07-29T06:57:35;21.40;71.25
65989;HTU21D;53592;51.402;6.054;2023-07-29T07:00:02;21.54;70.52
65989;HTU21D;53592;51.402;6.054;2023-07-29T07:02:28;21.67;70.33
65989;HTU21D;53592;51.402;6.054;2023-07-29T07:04:53;21.92;69.90
65989;HTU21D;53592;51.402;6.054;2023-07-29T07:07:19;22.16;69.35
65989;HTU21D;53592;51.402;6.054;2023-07-29T07:09:44;22.41;68.53
65989;HTU21D;53592;51.402;6.054;2023-07-29T07:12:10;22.68;67.62
65989;HTU21D;53592;51.402;6.054;2023-07-29T07:14:36;22.88;66.82
65989;HTU21D;53592;51.402;6.054;2023-07-29T07:17:02;23.05;66.40
65989;HTU21D;53592;51.402;6.054;2023-07-29T07:19:27;23.22;65.32
65989;HTU21D;53592;51.402;6.054;2023-07-29T07:21:53;23.47;65.23
65989;HTU21D;53592;51.402;6.054;2023-07-29T07:24:18;23.89;64.42
65989;HTU21D;53592;51.402;6.054;2023-07-29T07:26:44;24.29;64.09
65989;HTU21D;53592;51.402;6.054;2023-07-29T07:29:09;24.86;63.59
65989;HTU21D;53592;51.402;6.054;2023-07-29T07:31:35;25.46;62.47
65989;HTU21D;53592;51.402;6.054;2023-07-29T07:34:00;25.65;60.42
65989;HTU21D;53592;51.402;6.054;2023-07-29T07:36:27;25.91;59.55
65989;HTU21D;53592;51.402;6.054;2023-07-29T07:38:53;26.13;58.36
65989;HTU21D;53592;51.402;6.054;2023-07-29T07:41:18;26.25;57.98
65989;HTU21D;53592;51.402;6.054;2023-07-29T07:43:43;26.32;58.00
65989;HTU21D;53592;51.402;6.054;2023-07-29T07:46:09;26.63;57.63
65989;HTU21D;53592;51.402;6.054;2023-07-29T07:48:34;26.79;55.57
65989;HTU21D;53592;51.402;6.054;2023-07-29T07:51:00;26.92;55.90
65989;HTU21D;53592;51.402;6.054;2023-07-29T07:53:26;26.83;54.97
65989;HTU21D;53592;51.402;6.054;2023-07-29T07:55:52;26.75;55.97
65989;HTU21D;53592;51.402;6.054;2023-07-29T07:58:17;26.76;56.13
65989;HTU21D;53592;51.402;6.054;2023-07-29T08:00:43;26.67;55.55
65989;HTU21D;53592;51.402;6.054;2023-07-29T08:03:08;26.69;55.97
65989;HTU21D;53592;51.402;6.054;2023-07-29T08:05:34;26.71;55.42
65989;HTU21D;53592;51.402;6.054;2023-07-29T08:08:00;26.53;54.45
65989;HTU21D;53592;51.402;6.054;2023-07-29T08:10:25;26.18;54.91
65989;HTU21D;53592;51.402;6.054;2023-07-29T08:12:51;25.83;56.11
65989;HTU21D;53592;51.402;6.054;2023-07-29T08:15:16;25.63;56.94
65989;HTU21D;53592;51.402;6.054;2023-07-29T08:17:42;25.50;57.79
65989;HTU21D;53592;51.402;6.054;2023-07-29T08:20:08;25.32;57.89
65989;HTU21D;53592;51.402;6.054;2023-07-29T08:22:34;25.10;58.34
65989;HTU21D;53592;51.402;6.054;2023-07-29T08:25:00;24.91;58.82
65989;HTU21D;53592;51.402;6.054;2023-07-29T08:27:25;24.84;60.11
65989;HTU21D;53592;51.402;6.054;2023-07-29T08:29:51;24.92;60.23
65989;HTU21D;53592;51.402;6.054;2023-07-29T08:32:16;25.00;59.62
65989;HTU21D;53592;51.402;6.054;2023-07-29T08:34:41;25.01;59.07
65989;HTU21D;53592;51.402;6.054;2023-07-29T08:37:07;24.98;58.70
65989;HTU21D;53592;51.402;6.054;2023-07-29T08:39:32;24.91;58.97
65989;HTU21D;53592;51.402;6.054;2023-07-29T08:42:04;24.90;59.03
65989;HTU21D;53592;51.402;6.054;2023-07-29T08:44:43;24.92;58.81
65989;HTU21D;53592;51.402;6.054;2023-07-29T08:47:09;24.86;58.55
65989;HTU21D;53592;51.402;6.054;2023-07-29T08:49:36;24.78;58.99
65989;HTU21D;53592;51.402;6.054;2023-07-29T08:52:04;24.76;58.66
65989;HTU21D;53592;51.402;6.054;2023-07-29T08:54:30;24.72;59.37
65989;HTU21D;53592;51.402;6.054;2023-07-29T08:56:56;24.61;59.58
65989;HTU21D;53592;51.402;6.054;2023-07-29T08:59:23;24.58;59.91
65989;HTU21D;53592;51.402;6.054;2023-07-29T09:01:49;24.48;59.48
65989;HTU21D;53592;51.402;6.054;2023-07-29T09:04:14;24.30;59.56
65989;HTU21D;53592;51.402;6.054;2023-07-29T09:06:43;24.15;60.08
65989;HTU21D;53592;51.402;6.054;2023-07-29T09:09:09;24.09;60.96
65989;HTU21D;53592;51.402;6.054;2023-07-29T09:11:35;23.98;60.41
65989;HTU21D;53592;51.402;6.054;2023-07-29T09:14:00;23.80;60.44
65989;HTU21D;53592;51.402;6.054;2023-07-29T09:16:26;23.71;61.25
65989;HTU21D;53592;51.402;6.054;2023-07-29T09:18:52;23.77;61.85
65989;HTU21D;53592;51.402;6.054;2023-07-29T09:21:23;23.91;62.56
65989;HTU21D;53592;51.402;6.054;2023-07-29T09:23:50;24.12;61.89
65989;HTU21D;53592;51.402;6.054;2023-07-29T09:26:25;24.36;62.08
65989;HTU21D;53592;51.402;6.054;2023-07-29T09:28:55;24.57;60.88
65989;HTU21D;53592;51.402;6.054;2023-07-29T09:31:22;24.64;59.80
65989;HTU21D;53592;51.402;6.054;2023-07-29T09:33:48;24.72;59.08
65989;HTU21D;53592;51.402;6.054;2023-07-29T09:36:13;24.76;58.93
65989;HTU21D;53592;51.402;6.054;2023-07-29T09:38:39;24.84;58.57
65989;HTU21D;53592;51.402;6.054;2023-07-29T09:41:05;24.87;58.79
65989;HTU21D;53592;51.402;6.054;2023-07-29T09:43:32;25.12;59.25
65989;HTU21D;53592;51.402;6.054;2023-07-29T09:46:02;25.52;58.61
65989;HTU21D;53592;51.402;6.054;2023-07-29T09:48:31;25.91;57.12
65989;HTU21D;53592;51.402;6.054;2023-07-29T09:50:57;26.07;56.67
65989;HTU21D;53592;51.402;6.054;2023-07-29T09:53:24;26.22;55.95
65989;HTU21D;53592;51.402;6.054;2023-07-29T09:55:50;26.33;54.36
65989;HTU21D;53592;51.402;6.054;2023-07-29T09:58:27;26.49;55.73
65989;HTU21D;53592;51.402;6.054;2023-07-29T10:00:52;26.77;54.55
65989;HTU21D;53592;51.402;6.054;2023-07-29T10:03:21;26.82;52.62
65989;HTU21D;53592;51.402;6.054;2023-07-29T10:05:47;26.73;52.74
65989;HTU21D;53592;51.402;6.054;2023-07-29T10:08:14;26.72;53.27
65989;HTU21D;53592;51.402;6.054;2023-07-29T10:10:42;26.78;53.20
65989;HTU21D;53592;51.402;6.054;2023-07-29T10:13:09;26.78;53.61
65989;HTU21D;53592;51.402;6.054;2023-07-29T10:15:36;26.83;53.56
65989;HTU21D;53592;51.402;6.054;2023-07-29T10:18:02;26.86;53.17
65989;HTU21D;53592;51.402;6.054;2023-07-29T10:20:30;26.75;52.77
65989;HTU21D;53592;51.402;6.054;2023-07-29T10:22:59;26.65;53.81
65989;HTU21D;53592;51.402;6.054;2023-07-29T10:25:37;26.65;53.43
65989;HTU21D;53592;51.402;6.054;2023-07-29T10:28:08;26.63;53.53
65989;HTU21D;53592;51.402;6.054;2023-07-29T10:30:38;26.65;53.10
65989;HTU21D;53592;51.402;6.054;2023-07-29T10:33:05;26.65;53.05
65989;HTU21D;53592;51.402;6.054;2023-07-29T10:35:35;26.55;53.60
65989;HTU21D;53592;51.402;6.054;2023-07-29T10:38:02;26.47;54.05
65989;HTU21D;53592;51.402;6.054;2023-07-29T10:40:54;26.32;53.39
65989;HTU21D;53592;51.402;6.054;2023-07-29T10:43:36;26.13;53.80
65989;HTU21D;53592;51.402;6.054;2023-07-29T10:46:18;25.86;54.87
65989;HTU21D;53592;51.402;6.054;2023-07-29T10:48:54;25.75;55.57
65989;HTU21D;53592;51.402;6.054;2023-07-29T10:51:27;25.64;56.35
65989;HTU21D;53592;51.402;6.054;2023-07-29T10:56:36;25.51;56.59
65989;HTU21D;53592;51.402;6.054;2023-07-29T11:01:40;25.39;57.26
65989;HTU21D;53592;51.402;6.054;2023-07-29T11:15:12;25.03;58.21
65989;HTU21D;53592;51.402;6.054;2023-07-29T11:17:44;24.99;58.32
65989;HTU21D;53592;51.402;6.054;2023-07-29T11:20:11;25.00;58.87
65989;HTU21D;53592;51.402;6.054;2023-07-29T11:22:38;25.07;58.62
65989;HTU21D;53592;51.402;6.054;2023-07-29T11:25:04;25.06;58.24
65989;HTU21D;53592;51.402;6.054;2023-07-29T11:27:30;25.06;58.37
65989;HTU21D;53592;51.402;6.054;2023-07-29T11:29:57;25.21;58.79
65989;HTU21D;53592;51.402;6.054;2023-07-29T11:32:24;25.29;58.04
65989;HTU21D;53592;51.402;6.054;2023-07-29T11:34:50;25.38;58.28
65989;HTU21D;53592;51.402;6.054;2023-07-29T11:37:16;25.48;57.48
65989;HTU21D;53592;51.402;6.054;2023-07-29T11:39:43;25.36;57.67
65989;HTU21D;53592;51.402;6.054;2023-07-29T11:42:13;25.28;57.79
65989;HTU21D;53592;51.402;6.054;2023-07-29T11:44:39;25.32;58.12
65989;HTU21D;53592;51.402;6.054;2023-07-29T11:47:09;25.46;58.22
65989;HTU21D;53592;51.402;6.054;2023-07-29T11:49:35;25.77;58.20
65989;HTU21D;53592;51.402;6.054;2023-07-29T11:52:03;26.16;57.85
65989;HTU21D;53592;51.402;6.054;2023-07-29T11:54:29;26.53;56.07
65989;HTU21D;53592;51.402;6.054;2023-07-29T11:56:55;26.75;55.42
65989;HTU21D;53592;51.402;6.054;2023-07-29T11:59:21;26.76;54.61
65989;HTU21D;53592;51.402;6.054;2023-07-29T12:01:47;26.77;55.10
65989;HTU21D;53592;51.402;6.054;2023-07-29T12:04:13;26.83;55.94
65989;HTU21D;53592;51.402;6.054;2023-07-29T12:06:40;26.97;55.10
65989;HTU21D;53592;51.402;6.054;2023-07-29T12:09:06;27.06;54.58
65989;HTU21D;53592;51.402;6.054;2023-07-29T12:11:33;26.92;54.72
65989;HTU21D;53592;51.402;6.054;2023-07-29T12:14:00;26.97;53.62
65989;HTU21D;53592;51.402;6.054;2023-07-29T12:16:25;26.69;53.43
65989;HTU21D;53592;51.402;6.054;2023-07-29T12:18:51;26.40;54.30
65989;HTU21D;53592;51.402;6.054;2023-07-29T12:21:18;26.25;55.43
65989;HTU21D;53592;51.402;6.054;2023-07-29T12:23:44;26.23;55.10
65989;HTU21D;53592;51.402;6.054;2023-07-29T12:26:10;26.06;55.44
65989;HTU21D;53592;51.402;6.054;2023-07-29T12:28:35;25.91;55.83
65989;HTU21D;53592;51.402;6.054;2023-07-29T12:31:01;25.84;56.01
65989;HTU21D;53592;51.402;6.054;2023-07-29T12:33:34;25.82;56.23
65989;HTU21D;53592;51.402;6.054;2023-07-29T12:36:01;25.82;56.08
65989;HTU21D;53592;51.402;6.054;2023-07-29T12:38:28;25.74;56.45
65989;HTU21D;53592;51.402;6.054;2023-07-29T12:40:54;25.71;56.81
65989;HTU21D;53592;51.402;6.054;2023-07-29T12:43:20;25.72;56.82
65989;HTU21D;53592;51.402;6.054;2023-07-29T12:45:45;25.76;57.22
65989;HTU21D;53592;51.402;6.054;2023-07-29T12:48:11;25.76;57.54
65989;HTU21D;53592;51.402;6.054;2023-07-29T12:50:40;25.76;57.35
65989;HTU21D;53592;51.402;6.054;2023-07-29T12:53:07;25.75;57.17
65989;HTU21D;53592;51.402;6.054;2023-07-29T12:55:33;25.51;58.54
65989;HTU21D;53592;51.402;6.054;2023-07-29T12:57:59;24.98;60.73
65989;HTU21D;53592;51.402;6.054;2023-07-29T13:00:24;24.31;64.20
65989;HTU21D;53592;51.402;6.054;2023-07-29T13:02:50;23.98;65.85
65989;HTU21D;53592;51.402;6.054;2023-07-29T13:05:16;23.62;67.07
65989;HTU21D;53592;51.402;6.054;2023-07-29T13:07:43;23.41;68.53
65989;HTU21D;53592;51.402;6.054;2023-07-29T13:10:11;23.30;69.88
65989;HTU21D;53592;51.402;6.054;2023-07-29T13:12:37;23.28;70.47
65989;HTU21D;53592;51.402;6.054;2023-07-29T13:15:04;23.23;70.48
65989;HTU21D;53592;51.402;6.054;2023-07-29T13:17:29;23.07;71.58
65989;HTU21D;53592;51.402;6.054;2023-07-29T13:19:55;22.99;72.00
65989;HTU21D;53592;51.402;6.054;2023-07-29T13:22:21;22.95;72.68
65989;HTU21D;53592;51.402;6.054;2023-07-29T13:24:46;22.86;72.80
65989;HTU21D;53592;51.402;6.054;2023-07-29T13:27:12;22.76;73.12
65989;HTU21D;53592;51.402;6.054;2023-07-29T13:29:37;22.71;73.83
65989;HTU21D;53592;51.402;6.054;2023-07-29T13:32:04;22.71;74.64
65989;HTU21D;53592;51.402;6.054;2023-07-29T13:34:29;22.79;75.34
65989;HTU21D;53592;51.402;6.054;2023-07-29T13:36:55;22.83;75.86
65989;HTU21D;53592;51.402;6.054;2023-07-29T13:39:20;22.95;76.24
65989;HTU21D;53592;51.402;6.054;2023-07-29T13:41:46;23.09;76.19
65989;HTU21D;53592;51.402;6.054;2023-07-29T13:44:11;23.27;76.00
65989;HTU21D;53592;51.402;6.054;2023-07-29T13:46:37;23.43;75.47
65989;HTU21D;53592;51.402;6.054;2023-07-29T13:49:02;23.51;74.86
65989;HTU21D;53592;51.402;6.054;2023-07-29T13:51:28;23.59;74.85
65989;HTU21D;53592;51.402;6.054;2023-07-29T13:53:53;23.76;74.18
65989;HTU21D;53592;51.402;6.054;2023-07-29T13:56:19;23.92;73.39
65989;HTU21D;53592;51.402;6.054;2023-07-29T13:58:44;24.14;73.26
65989;HTU21D;53592;51.402;6.054;2023-07-29T14:01:10;24.33;72.88
65989;HTU21D;53592;51.402;6.054;2023-07-29T14:03:35;24.60;72.33
65989;HTU21D;53592;51.402;6.054;2023-07-29T14:06:01;24.78;71.53
65989;HTU21D;53592;51.402;6.054;2023-07-29T14:08:26;24.94;70.27
65989;HTU21D;53592;51.402;6.054;2023-07-29T14:10:52;25.06;69.87
65989;HTU21D;53592;51.402;6.054;2023-07-29T14:13:17;25.13;69.05
65989;HTU21D;53592;51.402;6.054;2023-07-29T14:15:43;25.24;68.71
65989;HTU21D;53592;51.402;6.054;2023-07-29T14:18:08;25.28;68.89
65989;HTU21D;53592;51.402;6.054;2023-07-29T14:20:33;25.27;68.67
65989;HTU21D;53592;51.402;6.054;2023-07-29T14:22:59;25.28;68.04
65989;HTU21D;53592;51.402;6.054;2023-07-29T14:25:25;25.23;67.82
65989;HTU21D;53592;51.402;6.054;2023-07-29T14:27:50;25.23;67.99
65989;HTU21D;53592;51.402;6.054;2023-07-29T14:30:16;25.27;67.92
65989;HTU21D;53592;51.402;6.054;2023-07-29T14:32:41;25.08;68.10
65989;HTU21D;53592;51.402;6.054;2023-07-29T14:35:07;24.74;67.67
65989;HTU21D;53592;51.402;6.054;2023-07-29T14:37:34;23.95;69.10
65989;HTU21D;53592;51.402;6.054;2023-07-29T14:40:00;23.42;69.48
65989;HTU21D;53592;51.402;6.054;2023-07-29T14:42:27;22.98;70.86
65989;HTU21D;53592;51.402;6.054;2023-07-29T14:44:52;22.73;71.73
65989;HTU21D;53592;51.402;6.054;2023-07-29T14:47:18;22.68;71.99
65989;HTU21D;53592;51.402;6.054;2023-07-29T14:49:45;22.49;71.03
65989;HTU21D;53592;51.402;6.054;2023-07-29T14:52:11;22.29;73.09
65989;HTU21D;53592;51.402;6.054;2023-07-29T14:54:36;22.13;73.60
65989;HTU21D;53592;51.402;6.054;2023-07-29T14:57:02;22.08;75.70
65989;HTU21D;53592;51.402;6.054;2023-07-29T14:59:28;22.12;75.28
65989;HTU21D;53592;51.402;6.054;2023-07-29T15:01:53;22.16;75.63
65989;HTU21D;53592;51.402;6.054;2023-07-29T15:04:19;22.31;76.14
65989;HTU21D;53592;51.402;6.054;2023-07-29T15:06:45;22.46;76.83
65989;HTU21D;53592;51.402;6.054;2023-07-29T15:09:11;22.67;75.50
65989;HTU21D;53592;51.402;6.054;2023-07-29T15:11:37;22.91;74.65
65989;HTU21D;53592;51.402;6.054;2023-07-29T15:14:02;22.88;74.83
65989;HTU21D;53592;51.402;6.054;2023-07-29T15:16:30;23.07;75.10
65989;HTU21D;53592;51.402;6.054;2023-07-29T15:18:56;23.20;74.43
65989;HTU21D;53592;51.402;6.054;2023-07-29T15:21:21;23.22;74.16
65989;HTU21D;53592;51.402;6.054;2023-07-29T15:23:50;23.23;74.45
65989;HTU21D;53592;51.402;6.054;2023-07-29T15:26:15;23.27;73.79
65989;HTU21D;53592;51.402;6.054;2023-07-29T15:28:41;23.29;73.32